TimeAKDT,TemperatureF,Dew PointF,Humidity,Sea Level PressureIn,VisibilityMPH,Wind Direction,Wind SpeedMPH,Gust SpeedMPH,PrecipitationIn,Events,Conditions,WindDirDegrees,DateUTC
12:16 AM,33.8,26.6,75,30.62,10.0,Calm,Calm,-,N/A,,Clear,0,2013-04-23 08:16:00
12:36 AM,32.0,26.6,80,30.63,10.0,ESE,5.8,-,N/A,,Clear,120,2013-04-23 08:36:00
12:56 AM,33.8,26.6,75,30.63,10.0,East,5.8,-,N/A,,Clear,90,2013-04-23 08:56:00
1:16 AM,35.6,26.6,70,30.62,10.0,ESE,4.6,-,N/A,,Clear,110,2013-04-23 09:16:00
1:36 AM,33.8,28.4,81,30.62,10.0,ESE,5.8,-,N/A,,Clear,120,2013-04-23 09:36:00
2:16 AM,30.2,26.6,86,30.63,10.0,WSW,5.8,-,N/A,,Clear,250,2013-04-23 10:16:00
2:36 AM,30.2,26.6,86,30.62,10.0,SW,3.5,-,N/A,,Clear,220,2013-04-23 10:36:00
2:56 AM,30.2,26.6,86,30.63,10.0,SW,5.8,-,N/A,,Clear,230,2013-04-23 10:56:00
3:16 AM,30.2,24.8,80,30.63,10.0,SW,4.6,-,N/A,,Clear,230,2013-04-23 11:16:00
3:36 AM,32.0,26.6,80,30.63,10.0,SW,4.6,-,N/A,,Clear,220,2013-04-23 11:36:00
3:56 AM,30.2,26.6,86,30.63,10.0,SW,4.6,-,N/A,,Clear,220,2013-04-23 11:56:00
4:16 AM,30.2,26.6,86,30.64,10.0,West,4.6,-,N/A,,Clear,260,2013-04-23 12:16:00
4:36 AM,30.2,26.6,86,30.64,10.0,WSW,5.8,-,N/A,,Clear,240,2013-04-23 12:36:00
4:56 AM,32.0,26.6,80,30.64,10.0,SSW,4.6,-,N/A,,Clear,200,2013-04-23 12:56:00
5:16 AM,30.2,26.6,86,30.64,10.0,Calm,Calm,-,N/A,,Clear,0,2013-04-23 13:16:00
5:36 AM,28.4,24.8,86,30.64,10.0,Calm,Calm,-,N/A,,Clear,0,2013-04-23 13:36:00
5:56 AM,33.8,28.4,81,30.65,10.0,SE,4.6,-,N/A,,Clear,130,2013-04-23 13:56:00
6:16 AM,33.8,26.6,75,30.64,10.0,Calm,Calm,-,N/A,,Clear,0,2013-04-23 14:16:00
6:36 AM,30.2,26.6,86,30.65,10.0,WSW,4.6,-,N/A,,Clear,240,2013-04-23 14:36:00
6:56 AM,33.8,28.4,81,30.65,10.0,WSW,5.8,-,N/A,,Clear,240,2013-04-23 14:56:00
7:16 AM,35.6,28.4,75,30.64,10.0,SSW,3.5,-,N/A,,Clear,200,2013-04-23 15:16:00
7:36 AM,37.4,30.2,75,30.64,10.0,South,3.5,-,N/A,,Clear,190,2013-04-23 15:36:00
7:56 AM,39.2,32.0,75,30.64,10.0,Calm,Calm,-,N/A,,Clear,0,2013-04-23 15:56:00
8:16 AM,39.2,30.2,70,30.64,10.0,NE,3.5,-,N/A,,Clear,40,2013-04-23 16:16:00
8:36 AM,39.2,30.2,70,30.63,10.0,ENE,3.5,-,N/A,,Clear,60,2013-04-23 16:36:00
8:56 AM,41.0,28.4,61,30.63,10.0,NE,3.5,-,N/A,,Clear,50,2013-04-23 16:56:00
9:16 AM,41.0,28.4,61,30.63,10.0,NE,5.8,-,N/A,,Clear,40,2013-04-23 17:16:00
9:36 AM,41.0,30.2,65,30.63,10.0,ENE,4.6,-,N/A,,Clear,60,2013-04-23 17:36:00
9:56 AM,42.8,28.4,57,30.62,10.0,ENE,5.8,-,N/A,,Clear,60,2013-04-23 17:56:00
10:16 AM,42.8,28.4,57,30.63,10.0,NNE,4.6,-,N/A,,Clear,30,2013-04-23 18:16:00
10:36 AM,44.6,28.4,53,30.63,10.0,NE,4.6,-,N/A,,Clear,50,2013-04-23 18:36:00
10:56 AM,42.8,28.4,57,30.63,10.0,ENE,5.8,-,N/A,,Clear,60,2013-04-23 18:56:00
11:16 AM,44.6,32.0,61,30.63,10.0,NE,6.9,-,N/A,,Clear,50,2013-04-23 19:16:00
11:36 AM,42.8,33.8,70,30.63,10.0,NE,6.9,-,N/A,,Clear,50,2013-04-23 19:36:00
11:56 AM,42.8,30.2,61,30.63,10.0,NNE,5.8,-,N/A,,Clear,30,2013-04-23 19:56:00
12:16 PM,44.6,30.2,57,30.63,10.0,NE,8.1,-,N/A,,Clear,50,2013-04-23 20:16:00
12:36 PM,44.6,33.8,66,30.62,10.0,NNE,5.8,-,N/A,,Clear,30,2013-04-23 20:36:00
12:56 PM,44.6,30.2,57,30.62,-9999.0,NNE,5.8,-,N/A,,Clear,20,2013-04-23 20:56:00
1:16 PM,44.6,30.2,57,30.62,10.0,NE,5.8,-,N/A,,Clear,40,2013-04-23 21:16:00
1:36 PM,44.6,30.2,57,30.61,10.0,NNE,6.9,-,N/A,,Clear,30,2013-04-23 21:36:00
1:56 PM,46.4,30.2,53,30.61,10.0,NE,6.9,-,N/A,,Clear,50,2013-04-23 21:56:00
2:16 PM,46.4,33.8,62,30.60,10.0,NE,6.9,-,N/A,,Clear,50,2013-04-23 22:16:00
2:36 PM,46.4,30.2,53,30.60,10.0,NE,8.1,-,N/A,,Clear,50,2013-04-23 22:36:00
2:56 PM,46.4,30.2,53,30.60,10.0,NNE,8.1,-,N/A,,Clear,30,2013-04-23 22:56:00
3:16 PM,46.4,30.2,53,30.59,10.0,ENE,6.9,-,N/A,,Clear,60,2013-04-23 23:16:00
3:36 PM,48.2,30.2,50,30.58,10.0,ENE,6.9,-,N/A,,Clear,60,2013-04-23 23:36:00
3:56 PM,46.4,33.8,62,30.57,10.0,NE,6.9,-,N/A,,Clear,50,2013-04-23 23:56:00
4:16 PM,46.4,33.8,62,30.56,10.0,NE,5.8,-,N/A,,Clear,50,2013-04-24 00:16:00
4:36 PM,48.2,28.4,46,30.55,10.0,ENE,6.9,-,N/A,,Clear,60,2013-04-24 00:36:00
4:56 PM,48.2,30.2,50,30.54,-9999.0,NE,6.9,-,N/A,,Clear,50,2013-04-24 00:56:00
5:16 PM,48.2,30.2,50,30.54,10.0,NE,4.6,-,N/A,,Partly Cloudy,40,2013-04-24 01:16:00
5:36 PM,46.4,28.4,50,30.53,10.0,NE,6.9,-,N/A,,Partly Cloudy,40,2013-04-24 01:36:00
5:56 PM,46.4,30.2,53,30.52,10.0,NNE,8.1,-,N/A,,Partly Cloudy,30,2013-04-24 01:56:00
6:16 PM,46.4,30.2,53,30.51,10.0,NE,4.6,-,N/A,,Scattered Clouds,50,2013-04-24 02:16:00
6:36 PM,44.6,30.2,57,30.51,10.0,East,3.5,-,N/A,,Scattered Clouds,80,2013-04-24 02:36:00
6:56 PM,46.4,30.2,53,30.51,10.0,ENE,3.5,-,N/A,,Mostly Cloudy,70,2013-04-24 02:56:00
7:16 PM,46.4,30.2,53,30.50,10.0,East,4.6,-,N/A,,Mostly Cloudy,80,2013-04-24 03:16:00
7:36 PM,46.4,28.4,50,30.50,10.0,East,5.8,-,N/A,,Mostly Cloudy,90,2013-04-24 03:36:00
7:56 PM,44.6,32.0,61,30.50,10.0,East,6.9,-,N/A,,Mostly Cloudy,80,2013-04-24 03:56:00
8:16 PM,44.6,32.0,61,30.49,10.0,East,5.8,-,N/A,,Mostly Cloudy,100,2013-04-24 04:16:00
8:36 PM,44.6,28.4,53,30.49,10.0,ESE,5.8,-,N/A,,Mostly Cloudy,110,2013-04-24 04:36:00
8:56 PM,44.6,28.4,53,30.49,10.0,East,3.5,-,N/A,,Overcast,90,2013-04-24 04:56:00
9:16 PM,44.6,28.4,53,30.48,10.0,East,3.5,-,N/A,,Overcast,80,2013-04-24 05:16:00
9:36 PM,44.6,28.4,53,30.48,10.0,Calm,Calm,-,N/A,,Overcast,0,2013-04-24 05:36:00
9:56 PM,44.6,30.2,57,30.48,10.0,Calm,Calm,-,N/A,,Overcast,0,2013-04-24 05:56:00
10:16 PM,42.8,32.0,66,30.48,10.0,Calm,Calm,-,N/A,,Overcast,0,2013-04-24 06:16:00
10:36 PM,42.8,32.0,66,30.47,10.0,SE,3.5,-,N/A,,Overcast,140,2013-04-24 06:36:00
10:56 PM,42.8,30.2,61,30.47,10.0,Calm,Calm,-,N/A,,Overcast,0,2013-04-24 06:56:00
11:16 PM,42.8,33.8,70,30.47,10.0,Calm,Calm,-,N/A,,Overcast,0,2013-04-24 07:16:00
11:36 PM,42.8,33.8,70,30.47,10.0,ENE,3.5,-,N/A,,Overcast,60,2013-04-24 07:36:00
11:56 PM,42.8,33.8,70,30.46,10.0,SE,3.5,-,N/A,,Overcast,130,2013-04-24 07:56:00